< Typhoon 196813 1968 Season Typhoon 196815 >
Typhoon 196814 (BESS)
General InformationTrack Information on Google Maps || Disaster Info.ResourceGoogle EarthGE AnimationAtom FeedGeoJSON
Detalied Best Track (Time Zone = UTC)
Year Month Day Hour Lat. Long. Pressure (hPa) Wind (kt) Class Image Chart
1968 8 31 00 19.6 118.0 1000 0 2 -- Chart
1968 8 31 06 19.6 117.4 998 0 2 -- Chart
1968 8 31 12 19.6 116.8 996 0 9 -- Chart
1968 8 31 18 19.5 116.4 992 0 9 -- Chart
1968 9 1 00 19.6 115.9 990 0 9 -- Chart
1968 9 1 06 19.8 115.5 985 0 9 -- Chart
1968 9 1 12 19.8 114.9 985 0 9 -- Chart
1968 9 1 18 19.6 114.4 985 0 9 -- Chart
1968 9 2 00 19.6 114.1 985 0 9 -- Chart
1968 9 2 06 19.6 113.9 985 0 9 -- Chart
1968 9 2 12 19.6 113.6 985 0 9 -- Chart
1968 9 2 18 19.5 113.0 980 0 9 -- Chart
1968 9 3 00 19.5 112.6 980 0 9 -- Chart
1968 9 3 06 19.2 112.2 980 0 9 -- Chart
1968 9 3 12 18.6 111.9 980 0 9 -- Chart
1968 9 3 18 18.3 111.6 980 0 9 -- Chart
1968 9 4 00 17.9 110.9 975 0 9 -- Chart
1968 9 4 06 17.7 110.3 965 0 9 -- Chart
1968 9 4 12 17.4 109.7 965 0 9 -- Chart
1968 9 4 18 17.0 109.1 965 0 9 -- Chart
1968 9 5 00 16.9 108.7 970 0 9 -- Chart
1968 9 5 06 16.7 108.5 975 0 9 -- Chart
1968 9 5 12 16.6 108.1 975 0 9 -- Chart
1968 9 5 18 16.4 107.7 980 0 9 -- Chart
1968 9 6 00 16.3 107.3 990 0 9 -- Chart
1968 9 6 06 17.5 107.5 998 0 2 -- Chart
1968 9 6 12 17.8 108.3 998 0 2 -- Chart
1968 9 6 18 18.0 109.0 998 0 2 -- Chart
1968 9 7 00 18.0 109.5 998 0 2 -- Chart
1968 9 7 06 18.0 110.0 998 0 2 -- Chart
1968 9 7 12 18.0 110.5 998 0 2 -- Chart
1968 9 7 18 18.0 111.0 998 0 2 -- Chart
1968 9 8 00 18.3 111.7 998 0 2 -- Chart
1968 9 8 06 18.5 112.5 998 0 2 -- Chart
1968 9 8 12 18.4 113.6 998 0 2 -- Chart
1968 9 8 18 18.0 113.1 1000 0 2 -- Chart
1968 9 9 00 18.0 112.7 1000 0 2 -- Chart
1968 9 9 06 18.0 112.4 1002 0 2 -- Chart
1968 9 9 12 18.0 112.0 1002 0 2 -- Chart
1968 9 9 18 18.4 112.0 1002 0 2 -- Chart
1968 9 10 00 18.4 112.0 1002 0 2 -- Chart
Japan Meteorological Agency Best Track Data | Correction Date : 1989-06-01
< Typhoon 196813 1968 Season Typhoon 196815 >

Help